Time;durP1;ratioP1;P1;durP2;ratioP2;P2;SDS_P1;SDS_P2;PMS_P1;PMS_P2;Temp;Humidity;BMP_temperature;BMP_pressure;BME280_temperature;BME280_humidity;BME280_pressure;Samples;Min_cycle;Max_cycle;Signal;HPM_P1;HPM_P2
2023/02/09 00:00:28;577605.00;1.93;995.57;0.00;0.00;0.62;;;;;0.90;1.00;;;;;;2276455;61;1913;-90
2023/02/09 00:13:25;1030958.00;3.44;1787.38;35038.00;0.12;61.30;;;;;2.20;1.00;;;;;;2274206;61;1408;-88
2023/02/09 00:15:55;162817.00;0.54;281.89;0.00;0.00;0.62;;;;;2.80;1.00;;;;;;2272416;61;1375;-85
2023/02/09 00:18:23;265976.00;0.89;459.42;0.00;0.00;0.62;;;;;3.00;1.00;;;;;;2272424;61;905;-86
2023/02/09 00:20:56;238753.00;0.80;412.61;0.00;0.00;0.62;;;;;2.80;1.00;;;;;;2272381;61;1911;-88
2023/02/09 00:23:23;380831.00;1.27;656.85;0.00;0.00;0.62;;;;;2.40;1.00;;;;;;2272390;61;1026;-87
2023/02/09 00:28:24;1273068.00;4.24;2222.90;0.00;0.00;0.62;;;;;1.50;1.00;;;;;;2273679;61;1337;-88
2023/02/09 00:30:52;409623.00;1.37;706.35;0.00;0.00;0.62;;;;;0.90;1.00;;;;;;2272323;61;1464;-89
2023/02/09 00:33:20;328714.00;1.10;567.28;0.00;0.00;0.62;;;;;0.70;1.00;;;;;;2272371;61;970;-89
2023/02/09 00:38:20;649004.00;2.16;1118.91;0.00;0.00;0.62;;;;;1.20;1.00;;;;;;2278196;61;1411;-90
2023/02/09 00:40:48;300528.00;1.00;518.83;0.00;0.00;0.62;;;;;1.80;1.00;;;;;;2276269;61;1913;-88
2023/02/09 00:43:15;399786.00;1.33;689.44;0.00;0.00;0.62;;;;;2.40;1.00;;;;;;2276268;61;967;-89
2023/02/09 00:45:42;361183.00;1.20;623.08;0.00;0.00;0.62;;;;;2.30;1.00;;;;;;2276314;61;1794;-86
2023/02/09 00:48:10;460747.00;1.54;794.27;0.00;0.00;0.62;;;;;2.30;1.00;;;;;;2276343;61;1484;-88
2023/02/09 00:50:37;407751.00;1.36;703.13;0.00;0.00;0.62;;;;;2.30;1.00;;;;;;2276361;61;1062;-88
2023/02/09 00:53:04;347836.00;1.16;600.14;0.00;0.00;0.62;;;;;2.50;1.00;;;;;;2276250;61;1579;-89
2023/02/09 00:55:31;320734.00;1.07;553.56;22488.00;0.07;39.58;;;;;2.80;1.00;;;;;;2276301;61;2071;-88
2023/02/09 00:57:58;206813.00;0.69;357.65;0.00;0.00;0.62;;;;;2.80;1.00;;;;;;2276389;61;1266;-87
2023/02/09 01:00:25;349349.00;1.16;602.74;0.00;0.00;0.62;;;;;3.40;1.00;;;;;;2276361;61;1985;-89
2023/02/09 01:02:52;292291.00;0.97;504.67;0.00;0.00;0.62;;;;;3.70;1.00;;;;;;2276350;61;1225;-88
2023/02/09 01:07:50;818371.00;2.73;1413.18;13491.00;0.04;24.00;;;;;3.90;1.00;;;;;;2277938;61;1391;-86
2023/02/09 01:10:17;529778.00;1.77;913.11;0.00;0.00;0.62;;;;;4.20;1.00;;;;;;2275994;61;1010;-87
2023/02/09 01:12:44;340793.00;1.14;588.04;0.00;0.00;0.62;;;;;3.50;1.00;;;;;;2276239;61;945;-88
2023/02/09 01:15:12;222713.00;0.74;385.01;0.00;0.00;0.62;;;;;3.00;1.00;;;;;;2276266;61;1385;-87
2023/02/09 01:20:13;723415.00;2.41;1247.87;0.00;0.00;0.62;;;;;3.00;1.00;;;;;;2277740;61;1347;-88
2023/02/09 01:22:40;400641.00;1.34;690.91;0.00;0.00;0.62;;;;;3.00;1.00;;;;;;2276078;61;1936;-88
2023/02/09 01:25:10;219024.00;0.73;378.66;0.00;0.00;0.62;;;;;2.90;1.00;;;;;;2276169;61;1249;-88
2023/02/09 01:30:07;784795.00;2.62;1354.62;8438.00;0.03;15.24;;;;;3.00;1.00;;;;;;2277764;61;1400;-89
2023/02/09 01:32:35;196550.00;0.66;339.98;0.00;0.00;0.62;;;;;2.50;1.00;;;;;;2276129;61;1108;-89
2023/02/09 01:35:02;289564.00;0.97;499.98;0.00;0.00;0.62;;;;;2.40;1.00;;;;;;2276181;61;1295;-89
2023/02/09 01:37:29;399716.00;1.33;689.32;60017.00;0.20;104.51;;;;;2.20;1.00;;;;;;2276266;61;1412;-88
2023/02/09 01:39:56;318364.00;1.06;549.49;0.00;0.00;0.62;;;;;1.90;1.00;;;;;;2276186;61;905;-88
2023/02/09 01:42:24;600561.00;2.00;1035.19;0.00;0.00;0.62;;;;;2.00;1.00;;;;;;2276212;61;2015;-88
2023/02/09 01:45:20;486528.00;1.62;838.63;0.00;0.00;0.62;;;;;1.90;1.00;;;;;;2292906;40;3645;-88
2023/02/09 01:47:54;303659.00;1.01;524.21;0.00;0.00;0.62;;;;;2.30;1.00;;;;;;2275881;61;1229;-89
2023/02/09 01:50:21;457539.00;1.53;788.75;0.00;0.00;0.62;;;;;3.50;1.00;;;;;;2276171;61;1505;-88
2023/02/09 01:52:49;217033.00;0.72;375.24;0.00;0.00;0.62;;;;;3.50;1.00;;;;;;2276158;61;1897;-88
2023/02/09 01:55:21;265106.00;0.88;457.93;0.00;0.00;0.62;;;;;2.80;1.00;;;;;;2275850;61;1595;-88
2023/02/09 02:00:22;587183.00;1.96;1012.09;0.00;0.00;0.62;;;;;2.20;1.00;;;;;;2281611;61;1383;-89
2023/02/09 02:02:54;621171.00;2.07;1070.79;0.00;0.00;0.62;;;;;3.30;1.00;;;;;;2280133;61;2027;-87
2023/02/09 02:05:23;331206.00;1.10;571.56;41470.00;0.14;72.43;;;;;4.10;1.00;;;;;;2280277;61;1746;-86
2023/02/09 02:10:25;855115.00;2.85;1477.42;36573.00;0.12;63.96;;;;;4.60;1.00;;;;;;2278070;61;1433;-86
2023/02/09 02:12:54;708083.00;2.36;1221.26;38126.00;0.13;66.65;;;;;3.90;1.00;;;;;;2276063;61;1038;-89
2023/02/09 02:15:25;833300.00;2.78;1439.26;20148.00;0.07;35.53;;;;;3.30;1.00;;;;;;2276077;61;1331;-88
2023/02/09 02:18:11;1373335.00;4.58;2406.96;71315.00;0.24;124.03;;;;;2.60;1.00;;;;;;2276202;61;1046;-88
2023/02/09 02:21:13;1261422.00;4.20;2201.67;121423.00;0.40;210.54;;;;;1.60;1.00;;;;;;2276353;61;1569;-88
2023/02/09 02:23:50;1014428.00;3.38;1758.04;88460.00;0.29;153.65;;;;;1.30;1.00;;;;;;2276861;61;1728;-88
2023/02/09 02:26:44;1503729.00;5.01;2650.14;115823.00;0.39;200.88;;;;;1.80;1.00;;;;;;2276595;61;1628;-86
2023/02/09 02:30:01;1766901.00;5.89;3156.17;255590.00;0.85;441.56;;;;;1.40;1.00;;;;;;2276835;61;1139;-89
2023/02/09 02:32:52;767896.00;2.56;1325.19;30438.00;0.10;53.34;;;;;1.00;1.00;;;;;;2260192;61;1633;-88
2023/02/09 02:35:30;476339.00;1.59;821.10;0.00;0.00;0.62;;;;;1.70;1.00;;;;;;2260218;61;1447;-88
2023/02/09 02:40:42;1254304.00;4.18;2188.72;71182.00;0.24;123.80;;;;;1.90;1.00;;;;;;2278877;61;1398;-87
2023/02/09 02:43:20;665167.00;2.22;1146.89;65989.00;0.22;114.83;;;;;2.10;1.00;;;;;;2276616;61;2007;-89
2023/02/09 02:45:51;1068081.00;3.56;1853.43;34518.00;0.12;60.40;;;;;2.20;1.00;;;;;;2276564;61;1793;-90
2023/02/09 02:48:33;848290.00;2.83;1465.48;36891.00;0.12;64.51;;;;;1.90;1.00;;;;;;2276809;61;1091;-90
2023/02/09 02:51:05;816351.00;2.72;1409.65;13799.00;0.05;24.53;;;;;2.30;1.00;;;;;;2276776;61;2071;-87
2023/02/09 02:56:07;1182961.00;3.94;2059.44;99394.00;0.33;172.53;;;;;2.40;1.00;;;;;;2279125;61;1335;-87
2023/02/09 02:58:39;946497.00;3.15;1637.93;59529.00;0.20;103.66;;;;;2.10;1.00;;;;;;2276818;61;1059;-89
2023/02/09 03:01:10;1235486.00;4.12;2154.51;81021.00;0.27;140.80;;;;;1.80;1.00;;;;;;2276657;61;1977;-88
2023/02/09 03:03:43;959910.00;3.20;1661.59;97277.00;0.32;168.87;;;;;1.70;1.00;;;;;;2276710;61;1054;-87
2023/02/09 03:06:12;1022267.00;3.41;1771.95;122096.00;0.41;211.70;;;;;2.40;1.00;;;;;;2276692;61;2205;-88
2023/02/09 03:14:15;697161.00;2.32;1202.32;18522.00;0.06;32.71;;;;;3.20;1.00;;;;;;2274002;61;1299;-87
2023/02/09 03:16:46;824058.00;2.75;1423.11;31405.00;0.10;55.01;;;;;2.90;1.00;;;;;;2268535;61;1512;-88
2023/02/09 03:19:36;995484.00;3.32;1724.48;82579.00;0.28;143.49;;;;;2.90;1.00;;;;;;2268505;61;1020;-89
2023/02/09 03:22:07;287082.00;0.96;495.71;0.00;0.00;0.62;;;;;2.20;1.00;;;;;;2268631;61;1982;-88
2023/02/09 03:24:41;351054.00;1.17;605.67;0.00;0.00;0.62;;;;;2.10;1.00;;;;;;2268566;61;1461;-87
2023/02/09 03:27:15;219358.00;0.73;379.24;0.00;0.00;0.62;;;;;3.00;1.00;;;;;;2268520;61;1772;-87
2023/02/09 03:29:45;344530.00;1.15;594.46;0.00;0.00;0.62;;;;;3.20;1.00;;;;;;2268475;61;1072;-85
2023/02/09 03:32:13;336381.00;1.12;580.45;0.00;0.00;0.62;;;;;3.10;1.00;;;;;;2268291;61;1095;-86
2023/02/09 03:37:11;707384.00;2.36;1220.05;0.00;0.00;0.62;;;;;2.10;1.00;;;;;;2279141;61;1332;-90
2023/02/09 03:39:39;1019929.00;3.40;1767.80;47307.00;0.16;82.53;;;;;1.80;1.00;;;;;;2276510;61;1767;-88
2023/02/09 03:49:41;930437.00;3.10;1609.64;10778.00;0.04;19.30;;;;;1.60;1.00;;;;;;2278130;61;1340;-88
2023/02/09 03:52:12;1745248.00;5.82;3113.68;63804.00;0.21;111.05;;;;;2.60;1.00;;;;;;2276437;61;1595;-89
2023/02/09 03:54:39;1328099.00;4.43;2323.62;75567.00;0.25;131.38;;;;;2.70;1.00;;;;;;2276435;61;1322;-89
2023/02/09 03:57:07;1493786.00;4.98;2631.43;33123.00;0.11;57.99;;;;;2.20;1.00;;;;;;2276531;61;2179;-91
2023/02/09 03:59:36;1202820.00;4.01;2095.32;56504.00;0.19;98.43;;;;;2.30;1.00;;;;;;2276519;61;1737;-88
2023/02/09 04:02:05;1286282.00;4.29;2247.02;20912.00;0.07;36.85;;;;;2.80;1.00;;;;;;2276527;61;1989;-87
2023/02/09 04:04:32;1197348.00;3.99;2085.43;104899.00;0.35;182.03;;;;;3.00;1.00;;;;;;2276427;61;1449;-88
2023/02/09 04:06:59;1481973.00;4.94;2609.24;67227.00;0.22;116.97;;;;;3.00;1.00;;;;;;2276559;61;1013;-87
2023/02/09 04:09:28;1492509.00;4.98;2629.03;47109.00;0.16;82.19;;;;;3.30;1.00;;;;;;2315186;40;3614;-88
2023/02/09 04:11:55;1508861.00;5.03;2659.80;92450.00;0.31;160.54;;;;;2.90;1.00;;;;;;2276580;61;932;-87
2023/02/09 04:14:22;1730791.00;5.77;3085.41;207992.00;0.69;359.68;;;;;3.00;1.00;;;;;;2276469;61;1390;-86
2023/02/09 04:16:50;1450920.00;4.84;2551.10;186504.00;0.62;322.69;;;;;2.40;1.00;;;;;;2276411;61;1587;-88
2023/02/09 04:21:46;120864216.00;402.88;71524696.00;119450408.00;398.17;69041752.00;;;;;3.00;1.00;;;;;;2278021;61;1962;-89
2023/02/09 04:24:13;1438228.00;4.79;2527.41;131470.00;0.44;227.86;;;;;3.10;1.00;;;;;;2276384;61;1510;-85
2023/02/09 04:26:41;1622758.00;5.41;2876.31;140679.00;0.47;243.74;;;;;3.00;1.00;;;;;;2276424;61;1645;-87
2023/02/09 04:29:08;1456388.00;4.85;2561.32;130480.00;0.43;226.16;;;;;2.70;1.00;;;;;;2276319;61;1616;-88
2023/02/09 04:31:35;1822011.00;6.07;3265.03;213239.00;0.71;368.71;;;;;2.30;1.00;;;;;;2276481;61;933;-87
2023/02/09 04:34:02;787423.00;2.62;1359.20;88924.00;0.30;154.45;;;;;1.90;1.00;;;;;;2276350;61;2067;-89
2023/02/09 04:36:29;874237.00;2.91;1510.92;106258.00;0.35;184.37;;;;;2.20;1.00;;;;;;2276493;61;1091;-89
2023/02/09 04:41:28;1750768.00;5.84;3124.50;147973.00;0.49;256.31;;;;;1.40;1.00;;;;;;2277934;61;1967;-88
2023/02/09 04:43:56;117837856.00;392.79;66280740.00;90887.00;0.30;157.84;;;;;0.60;1.00;;;;;;2276420;61;1351;-89
2023/02/09 04:46:23;119028144.00;396.76;68311464.00;84031.00;0.28;146.00;;;;;0.00;1.00;;;;;;2280488;55;3764;-88
2023/02/09 04:48:50;411749.00;1.37;710.00;0.00;0.00;0.62;;;;;-0.30;1.00;;;;;;2276431;61;2242;-88
2023/02/09 04:51:17;531399.00;1.77;915.90;0.00;0.00;0.62;;;;;-0.40;1.00;;;;;;2276325;61;1735;-89
2023/02/09 04:53:44;390576.00;1.30;673.60;0.00;0.00;0.62;;;;;-0.60;1.00;;;;;;2276332;61;1494;-89
2023/02/09 04:56:14;117572512.00;391.91;65833612.00;0.00;0.00;0.62;;;;;-0.90;1.00;;;;;;2276355;61;1391;-87
2023/02/09 05:01:30;510110.00;1.70;879.23;0.00;0.00;0.62;;;;;-0.80;1.00;;;;;;2276362;61;2012;-88
2023/02/09 05:03:57;354515.00;1.18;611.62;0.00;0.00;0.62;;;;;-0.60;1.00;;;;;;2276363;61;1334;-90
2023/02/09 05:06:24;117459632.00;391.53;65644004.00;0.00;0.00;0.62;;;;;-0.70;1.00;;;;;;2276377;61;1049;-88
2023/02/09 05:08:51;418493.00;1.39;721.60;0.00;0.00;0.62;;;;;-0.80;1.00;;;;;;2276169;61;944;-88
2023/02/09 05:11:18;553822.00;1.85;954.55;0.00;0.00;0.62;;;;;-0.70;1.00;;;;;;2276270;61;1537;-86
2023/02/09 05:13:45;603089.00;2.01;1039.55;21322.00;0.07;37.56;;;;;-1.10;1.00;;;;;;2276371;61;1113;-87
2023/02/09 05:16:16;460152.00;1.53;793.25;0.00;0.00;0.62;;;;;-1.40;1.00;;;;;;2276355;61;1462;-87
2023/02/09 05:18:44;496124.00;1.65;855.15;0.00;0.00;0.62;;;;;-1.50;1.00;;;;;;2276320;61;1143;-87
2023/02/09 05:21:12;847477.00;2.82;1464.05;49209.00;0.16;85.82;;;;;-1.40;1.00;;;;;;2276372;61;1041;-85
2023/02/09 05:23:39;430205.00;1.43;741.74;0.00;0.00;0.62;;;;;-1.60;1.00;;;;;;2276297;61;2001;-87
2023/02/09 05:26:11;529402.00;1.76;912.46;0.00;0.00;0.62;;;;;-1.70;1.00;;;;;;2276245;61;1552;-88
2023/02/09 05:28:38;492052.00;1.64;848.14;0.00;0.00;0.62;;;;;-1.70;1.00;;;;;;2276240;61;1692;-90
2023/02/09 05:31:05;460994.00;1.54;794.69;0.00;0.00;0.62;;;;;-1.70;1.00;;;;;;2276303;61;1020;-89
2023/02/09 05:33:32;393838.00;1.31;679.21;0.00;0.00;0.62;;;;;-1.80;1.00;;;;;;2276176;61;1530;-88
2023/02/09 05:36:02;497382.00;1.66;857.32;0.00;0.00;0.62;;;;;-1.60;1.00;;;;;;2276212;61;1590;-86
2023/02/09 05:38:29;497541.00;1.66;857.59;0.00;0.00;0.62;;;;;-1.50;1.00;;;;;;2276210;61;1612;-88
2023/02/09 05:43:27;939334.00;3.13;1625.31;0.00;0.00;0.62;;;;;-1.50;1.00;;;;;;2281687;61;1952;-89
2023/02/09 05:45:54;395444.00;1.32;681.97;0.00;0.00;0.62;;;;;-1.50;1.00;;;;;;2280327;61;1387;-89
2023/02/09 05:48:21;470054.00;1.57;810.28;0.00;0.00;0.62;;;;;-1.50;1.00;;;;;;2280212;61;1450;-88
2023/02/09 05:50:48;390806.00;1.30;674.00;0.00;0.00;0.62;;;;;-1.60;1.00;;;;;;2279863;61;2214;-87
2023/02/09 05:53:16;572981.00;1.91;987.59;41784.00;0.14;72.97;;;;;-1.40;1.00;;;;;;2280242;61;1177;-88
2023/02/09 05:58:13;864279.00;2.88;1493.47;0.00;0.00;0.62;;;;;-1.50;1.00;;;;;;2278585;61;1404;-87
2023/02/09 06:00:40;398255.00;1.33;686.81;0.00;0.00;0.62;;;;;-1.70;1.00;;;;;;2276924;61;995;-89
2023/02/09 06:03:07;449498.00;1.50;774.92;0.00;0.00;0.62;;;;;-1.30;1.00;;;;;;2276804;61;1997;-87
2023/02/09 06:05:34;1029145.00;3.43;1784.16;83480.00;0.28;145.05;;;;;-1.50;1.00;;;;;;2276746;61;1286;-88
2023/02/09 06:08:01;544774.00;1.82;938.95;0.00;0.00;0.62;;;;;-1.50;1.00;;;;;;2286915;39;3605;-87
2023/02/09 06:10:29;520894.00;1.74;897.80;0.00;0.00;0.62;;;;;-1.90;1.00;;;;;;2276851;61;1643;-86
2023/02/09 06:12:56;546171.00;1.82;941.36;0.00;0.00;0.62;;;;;-2.50;1.00;;;;;;2276914;61;1138;-86
2023/02/09 06:15:23;584383.00;1.95;1007.26;0.00;0.00;0.62;;;;;-2.50;1.00;;;;;;2276737;61;1400;-86
2023/02/09 06:17:50;483520.00;1.61;833.46;0.00;0.00;0.62;;;;;-2.40;1.00;;;;;;2276780;61;983;-87
2023/02/09 06:20:17;645103.00;2.15;1112.16;15182.00;0.05;26.93;;;;;-2.20;1.00;;;;;;2276835;61;1091;-88
2023/02/09 06:22:44;1476139.00;4.92;2598.30;35617.00;0.12;62.30;;;;;-2.00;1.00;;;;;;2276817;61;1984;-87
2023/02/09 06:25:11;1204404.00;4.01;2098.18;96931.00;0.32;168.27;;;;;-1.80;1.00;;;;;;2276864;61;1387;-88
2023/02/09 06:27:39;1135410.00;3.78;1973.87;125264.00;0.42;217.16;;;;;-1.80;1.00;;;;;;2276883;61;904;-87
2023/02/09 06:30:08;1071203.00;3.57;1859.00;70906.00;0.24;123.33;;;;;-1.60;1.00;;;;;;2276824;61;1034;-89
2023/02/09 06:32:36;1472802.00;4.91;2592.05;44796.00;0.15;78.19;;;;;-1.40;1.00;;;;;;2276823;61;1237;-87
2023/02/09 06:35:03;1249449.00;4.16;2179.88;34412.00;0.11;60.22;;;;;-1.40;1.00;;;;;;2276735;61;1363;-87
2023/02/09 06:37:29;1629435.00;5.43;2889.13;105895.00;0.35;183.75;;;;;-1.40;1.00;;;;;;2276701;61;1033;-88
2023/02/09 06:39:56;1241163.00;4.14;2164.82;12759.00;0.04;22.73;;;;;-1.60;1.00;;;;;;2276647;61;1076;-88
2023/02/09 06:42:42;1593926.00;5.31;2821.14;74712.00;0.25;129.90;;;;;-1.60;1.00;;;;;;2276661;61;2003;-88
2023/02/09 06:45:11;918858.00;3.06;1589.27;17010.00;0.06;30.09;;;;;-1.70;1.00;;;;;;2276596;61;1481;-88
2023/02/09 06:47:40;1220852.00;4.07;2127.97;137541.00;0.46;238.33;;;;;-1.50;1.00;;;;;;2276646;61;941;-89
2023/02/09 06:50:07;1597472.00;5.32;2827.91;218060.00;0.73;377.01;;;;;-1.40;1.00;;;;;;2276546;61;1458;-89
2023/02/09 06:55:06;1194461.00;3.98;2080.21;80142.00;0.27;139.28;;;;;-1.40;1.00;;;;;;2278333;61;1403;-88
2023/02/09 06:57:34;1103869.00;3.68;1917.34;90352.00;0.30;156.92;;;;;-1.60;1.00;;;;;;2276531;61;1721;-88
2023/02/09 07:00:01;783003.00;2.61;1351.50;96061.00;0.32;166.77;;;;;-1.70;1.00;;;;;;2276678;61;1090;-87
2023/02/09 07:02:29;1283566.00;4.28;2242.06;44340.00;0.15;77.40;;;;;-1.70;1.00;;;;;;2276592;61;2004;-86
2023/02/09 07:04:57;1234234.00;4.11;2152.24;67657.00;0.23;117.71;;;;;-1.70;1.00;;;;;;2276545;61;1394;-88
2023/02/09 07:07:24;1207083.00;4.02;2103.03;45113.00;0.15;78.73;;;;;-1.80;1.00;;;;;;2276263;61;1765;-89
2023/02/09 07:09:51;1460188.00;4.87;2568.43;116865.00;0.39;202.67;;;;;-1.70;1.00;;;;;;2276615;61;1039;-88
2023/02/09 07:14:47;1218945.00;4.06;2124.51;13677.00;0.05;24.32;;;;;-1.80;1.00;;;;;;2273870;61;1318;-87
2023/02/09 07:17:14;961983.00;3.21;1665.25;9604.00;0.03;17.26;;;;;-1.70;1.00;;;;;;2272735;61;1070;-89
2023/02/09 07:19:42;1320131.00;4.40;2309.00;120813.00;0.40;209.48;;;;;-1.80;1.00;;;;;;2272588;61;929;-87
2023/02/09 07:22:09;1249828.00;4.17;2180.57;83655.00;0.28;145.35;;;;;-1.60;1.00;;;;;;2272569;61;1915;-87
2023/02/09 07:24:36;1084663.00;3.62;1883.02;89528.00;0.30;155.49;;;;;-1.40;1.00;;;;;;2272470;61;1389;-87
2023/02/09 07:27:04;1716053.00;5.72;3056.66;87988.00;0.29;152.83;;;;;-1.20;1.00;;;;;;2272542;61;2198;-88
2023/02/09 07:29:31;1862978.00;6.21;3346.66;188494.00;0.63;326.12;;;;;-1.30;1.00;;;;;;2272492;61;1512;-87
2023/02/09 07:31:58;1192115.00;3.97;2075.97;40125.00;0.13;70.10;;;;;-1.40;1.00;;;;;;2272552;61;1005;-87
2023/02/09 07:34:25;1390522.00;4.64;2438.76;59417.00;0.20;103.47;;;;;-1.30;1.00;;;;;;2272356;61;1364;-87
2023/02/09 07:36:54;1560278.00;5.20;2757.06;166322.00;0.55;287.93;;;;;-1.20;1.00;;;;;;2272401;61;1544;-87
2023/02/09 07:46:57;1296216.00;4.32;2265.18;39493.00;0.13;69.01;;;;;-0.40;1.00;;;;;;2282197;60;1391;-88
2023/02/09 07:54:30;1532855.00;5.11;2705.10;18381.00;0.06;32.47;;;;;0.30;1.00;;;;;;2278067;61;1297;-88
2023/02/09 07:56:57;1238230.00;4.13;2159.49;62706.00;0.21;109.15;;;;;0.00;1.00;;;;;;2276579;61;1513;-87
2023/02/09 07:59:24;1066268.00;3.55;1850.20;47299.00;0.16;82.51;;;;;0.10;1.00;;;;;;2276565;61;1039;-89
2023/02/09 08:01:51;1265210.00;4.22;2208.58;34458.00;0.11;60.30;;;;;0.10;1.00;;;;;;2276507;61;944;-87
2023/02/09 08:09:28;1097950.00;3.66;1906.76;0.00;0.00;0.62;;;;;0.00;1.00;;;;;;2274160;61;1265;-87
2023/02/09 08:12:01;1566405.00;5.22;2768.71;0.00;0.00;0.62;;;;;0.20;1.00;;;;;;2272394;61;2219;-88
2023/02/09 08:14:34;723417.00;2.41;1247.87;0.00;0.00;0.62;;;;;0.30;1.00;;;;;;2272378;61;1648;-89
2023/02/09 08:19:35;844625.00;2.82;1459.06;0.00;0.00;0.62;;;;;0.80;1.00;;;;;;2295787;40;3491;-88
2023/02/09 08:22:02;1188411.00;3.96;2069.28;31810.00;0.11;55.72;;;;;0.90;1.00;;;;;;2299772;56;3836;-90
2023/02/09 08:32:06;819329.00;2.73;1414.85;0.00;0.00;0.62;;;;;2.00;1.00;;;;;;2278282;61;1656;-87
2023/02/09 08:34:33;259553.00;0.87;448.38;0.00;0.00;0.62;;;;;2.00;1.00;;;;;;2276435;61;1705;-89
2023/02/09 08:37:00;513941.00;1.71;885.83;0.00;0.00;0.62;;;;;2.10;1.00;;;;;;2276485;61;902;-90
2023/02/09 08:39:27;690423.00;2.30;1190.63;7378.00;0.02;13.41;;;;;2.20;1.00;;;;;;2276500;61;999;-89
2023/02/09 08:41:54;352982.00;1.18;608.99;4168.00;0.01;7.84;;;;;2.40;1.00;;;;;;2286803;55;3771;-89
2023/02/09 08:44:21;354164.00;1.18;611.02;0.00;0.00;0.62;;;;;2.60;1.00;;;;;;2281060;61;1924;-87
2023/02/09 08:46:48;359358.00;1.20;619.95;0.00;0.00;0.62;;;;;2.20;1.00;;;;;;2281048;61;992;-89
2023/02/09 08:49:16;455924.00;1.52;785.97;0.00;0.00;0.62;;;;;2.10;1.00;;;;;;2280998;61;1011;-88
2023/02/09 08:51:43;475992.00;1.59;820.50;0.00;0.00;0.62;;;;;2.40;1.00;;;;;;2281053;61;2179;-87
2023/02/09 08:54:10;420151.00;1.40;724.45;0.00;0.00;0.62;;;;;2.80;1.00;;;;;;2280351;60;1611;-88
2023/02/09 08:56:37;537908.00;1.79;927.12;0.00;0.00;0.62;;;;;3.20;1.00;;;;;;2280417;60;1553;-88
2023/02/09 08:59:04;285173.00;0.95;492.43;0.00;0.00;0.62;;;;;3.30;1.00;;;;;;2291429;55;3777;-89
2023/02/09 09:01:31;339664.00;1.13;586.10;0.00;0.00;0.62;;;;;3.00;1.00;;;;;;2280434;60;1072;-89
2023/02/09 09:03:58;226117.00;0.75;390.87;0.00;0.00;0.62;;;;;3.30;1.00;;;;;;2280411;60;2005;-90
2023/02/09 09:06:27;578272.00;1.93;996.72;34489.00;0.11;60.35;;;;;3.40;1.00;;;;;;2282091;55;3760;-89
2023/02/09 09:08:54;463511.00;1.55;799.02;0.00;0.00;0.62;;;;;3.20;1.00;;;;;;2287646;40;3620;-87
2023/02/09 09:11:21;378349.00;1.26;652.59;15376.00;0.05;27.26;;;;;2.60;1.00;;;;;;2272248;61;1159;-86
2023/02/09 09:13:48;327454.00;1.09;565.11;0.00;0.00;0.62;;;;;2.60;1.00;;;;;;2272325;61;976;-88
2023/02/09 09:16:16;319733.00;1.07;551.84;17849.00;0.06;31.55;;;;;2.90;1.00;;;;;;2275288;40;3590;-86
2023/02/09 09:21:13;664411.00;2.21;1145.58;0.00;0.00;0.62;;;;;2.70;1.00;;;;;;1812407;40;3445;-88
2023/02/09 09:26:11;673993.00;2.25;1162.17;18574.00;0.06;32.80;;;;;3.40;1.00;;;;;;2269863;61;2316;-89
2023/02/09 09:28:38;491960.00;1.64;847.98;0.00;0.00;0.62;;;;;3.60;1.00;;;;;;2268186;61;1721;-88
2023/02/09 09:31:07;478509.00;1.60;824.83;0.00;0.00;0.62;;;;;3.70;1.00;;;;;;2271073;55;3748;-87
2023/02/09 09:33:34;1179610.00;3.93;2053.40;9454.00;0.03;17.00;;;;;3.90;1.00;;;;;;2277954;61;1402;-87
2023/02/09 09:36:02;1133321.00;3.78;1970.12;92527.00;0.31;160.67;;;;;3.90;1.00;;;;;;2276186;61;1767;-88
2023/02/09 09:38:29;928578.00;3.10;1606.37;20347.00;0.07;35.87;;;;;3.90;1.00;;;;;;2276213;61;1007;-88
2023/02/09 09:40:56;1249968.00;4.17;2180.83;115559.00;0.39;200.42;;;;;4.00;1.00;;;;;;2276174;61;1118;-89
2023/02/09 09:43:32;1184125.00;3.95;2061.54;9097.00;0.03;16.38;;;;;3.70;1.00;;;;;;2288253;40;3592;-88
2023/02/09 09:46:00;693769.00;2.31;1196.43;3037.00;0.01;5.88;;;;;3.70;1.00;;;;;;2272117;61;1477;-88
2023/02/09 09:48:40;584632.00;1.95;1007.69;18927.00;0.06;33.41;;;;;3.60;1.00;;;;;;2272165;61;1133;-88
2023/02/09 09:51:12;277528.00;0.93;479.29;0.00;0.00;0.62;;;;;3.60;1.00;;;;;;2272187;61;1609;-88
2023/02/09 09:53:42;1013313.00;3.38;1756.07;67122.00;0.22;116.79;;;;;3.90;1.00;;;;;;2278156;40;3671;-87
2023/02/09 09:56:11;659506.00;2.20;1137.09;0.00;0.00;0.62;;;;;4.00;1.00;;;;;;2276078;61;1774;-89
2023/02/09 10:01:13;1252786.00;4.18;2185.95;70463.00;0.23;122.56;;;;;4.10;1.00;;;;;;2278156;61;1411;-87
2023/02/09 10:03:40;537646.00;1.79;926.67;389.00;0.00;1.29;;;;;4.40;1.00;;;;;;2276216;61;1990;-87
2023/02/09 10:06:15;605471.00;2.02;1043.67;28645.00;0.10;50.24;;;;;4.30;1.00;;;;;;2276024;61;1647;-87
2023/02/09 10:08:47;580188.00;1.93;1000.02;0.00;0.00;0.62;;;;;4.70;1.00;;;;;;2276170;61;1785;-87
2023/02/09 10:11:17;414111.00;1.38;714.07;0.00;0.00;0.62;;;;;4.70;1.00;;;;;;2276116;61;1747;-88
2023/02/09 10:13:49;431506.00;1.44;743.98;0.00;0.00;0.62;;;;;4.70;1.00;;;;;;2276224;61;1017;-85
2023/02/09 10:16:19;482685.00;1.61;832.02;0.00;0.00;0.62;;;;;4.60;1.00;;;;;;2276076;61;1694;-86
2023/02/09 10:18:50;549730.00;1.83;947.49;14239.00;0.05;25.29;;;;;4.40;1.00;;;;;;2276133;61;1139;-86
2023/02/09 10:26:24;924010.00;3.08;1598.33;0.00;0.00;0.62;;;;;4.40;1.00;;;;;;2269383;61;1195;-88
2023/02/09 10:28:53;439448.00;1.46;757.63;10434.00;0.03;18.70;;;;;5.10;1.00;;;;;;2268112;61;1022;-88
2023/02/09 11:01:25;1039123.00;3.46;1801.89;0.00;0.00;0.62;;;;;5.10;1.00;;;;;;2311479;55;3664;-88
2023/02/09 11:26:42;901264.00;3.00;1558.34;0.00;0.00;0.62;;;;;6.20;1.00;;;;;;1574238;40;3455;-87
2023/02/09 12:06:50;733833.00;2.45;1265.96;0.00;0.00;0.62;;;;;8.50;1.00;;;;;;2282836;61;982;-92
2023/02/09 12:09:30;269880.00;0.90;466.14;0.00;0.00;0.62;;;;;8.40;1.00;;;;;;2281102;61;1105;-92
2023/02/09 12:50:01;349667.00;1.17;603.29;0.00;0.00;0.62;;;;;8.60;1.00;;;;;;636458;40;3229;-87
2023/02/09 14:11:23;507435.00;1.69;874.63;0.00;0.00;0.62;;;;;9.10;1.00;;;;;;666333;40;3209;-88
2023/02/09 14:36:37;456834.00;1.52;787.54;0.00;0.00;0.62;;;;;8.30;1.00;;;;;;2279017;61;1081;-91
2023/02/09 14:57:35;259784.00;0.87;448.78;0.00;0.00;0.62;;;;;8.10;1.00;;;;;;843394;40;3194;-90
2023/02/09 15:02:58;446659.00;1.49;770.04;0.00;0.00;0.62;;;;;9.00;1.00;;;;;;958902;40;3429;-88
2023/02/09 15:28:54;1618179.00;5.39;2867.53;29081.00;0.10;50.99;;;;;6.00;1.00;;;;;;2291041;55;3653;-87
2023/02/09 17:15:17;1466454.00;4.89;2580.15;102836.00;0.34;178.47;;;;;4.60;1.00;;;;;;2278686;61;1380;-88
2023/02/09 17:22:52;827172.00;2.76;1428.55;0.00;0.00;0.62;;;;;5.60;1.00;;;;;;2278780;61;952;-91
2023/02/09 17:25:20;854654.00;2.85;1476.61;68129.00;0.23;118.53;;;;;5.80;1.00;;;;;;2276844;61;1926;-90
2023/02/09 17:33:01;914681.00;3.05;1581.92;0.00;0.00;0.62;;;;;5.90;1.00;;;;;;2278437;61;1000;-93
2023/02/09 18:51:28;893591.00;2.98;1544.87;0.00;0.00;0.62;;;;;5.80;1.00;;;;;;2282676;61;1007;-89
2023/02/09 19:49:49;122054632.00;406.85;73660992.00;193783.00;0.65;335.22;;;;;3.40;1.00;;;;;;2275095;61;994;-90
2023/02/09 20:37:55;961551.00;3.21;1664.49;0.00;0.00;0.62;;;;;3.20;1.00;;;;;;2278542;61;1057;-90
2023/02/09 22:34:34;928525.00;3.10;1606.28;35898.00;0.12;62.79;;;;;6.30;1.00;;;;;;2270382;61;1250;-90
